createdAt,value
2023-02-19T00:01:28.142Z,13.20
2023-02-19T00:03:57.103Z,13.07
2023-02-19T00:06:26.317Z,13.28
2023-02-19T00:08:52.831Z,13.41
2023-02-19T00:11:23.115Z,13.22
2023-02-19T00:13:52.539Z,13.19
2023-02-19T00:16:27.700Z,13.35
2023-02-19T00:18:55.877Z,12.97
2023-02-19T00:21:23.414Z,12.94
2023-02-19T00:23:51.298Z,13.04
2023-02-19T00:26:19.094Z,13.05
2023-02-19T00:28:47.414Z,13.09
2023-02-19T00:31:22.997Z,12.75
2023-02-19T00:33:52.713Z,12.92
2023-02-19T00:36:19.245Z,12.90
2023-02-19T00:38:46.099Z,12.91
2023-02-19T00:41:13.865Z,12.73
2023-02-19T00:43:40.338Z,12.84
2023-02-19T00:46:07.010Z,12.92
2023-02-19T00:48:33.506Z,12.95
2023-02-19T00:50:59.965Z,12.79
2023-02-19T00:53:26.454Z,12.68
2023-02-19T00:55:52.965Z,12.49
2023-02-19T00:58:19.443Z,12.24
2023-02-19T01:00:46.329Z,12.26
2023-02-19T01:03:12.829Z,12.11
2023-02-19T01:05:39.304Z,12.16
2023-02-19T01:08:05.752Z,12.22
2023-02-19T01:10:32.222Z,12.00
2023-02-19T01:12:58.710Z,12.31
2023-02-19T01:15:25.173Z,12.39
2023-02-19T01:17:51.653Z,12.35
2023-02-19T01:20:18.305Z,12.51
2023-02-19T01:22:44.766Z,12.52
2023-02-19T01:25:11.249Z,12.53
2023-02-19T01:27:37.713Z,12.50
2023-02-19T01:30:04.421Z,12.55
2023-02-19T01:32:30.939Z,12.49
2023-02-19T01:34:57.431Z,12.56
2023-02-19T01:37:23.955Z,12.54
2023-02-19T01:39:50.396Z,12.47
2023-02-19T01:42:17.302Z,12.45
2023-02-19T01:44:46.774Z,12.46
2023-02-19T01:47:17.348Z,12.39
2023-02-19T01:50:02.187Z,12.43
2023-02-19T01:52:34.349Z,12.32
2023-02-19T01:55:04.259Z,12.33
2023-02-19T01:57:39.349Z,12.24
2023-02-19T02:00:10.126Z,12.36
2023-02-19T02:02:39.537Z,12.32
2023-02-19T02:05:11.237Z,12.50
2023-02-19T02:07:37.680Z,12.49
2023-02-19T02:10:04.300Z,12.47
2023-02-19T02:12:30.840Z,12.42
2023-02-19T02:14:57.340Z,12.51
2023-02-19T02:17:58.680Z,12.51
2023-02-19T02:21:04.329Z,12.45
2023-02-19T02:24:06.304Z,12.14
2023-02-19T02:26:53.295Z,12.08
2023-02-19T02:29:55.850Z,12.14
2023-02-19T02:32:30.880Z,12.15
2023-02-19T02:35:07.276Z,12.02
2023-02-19T02:37:38.521Z,12.09
2023-02-19T02:40:08.109Z,12.06
2023-02-19T02:42:38.261Z,12.02
2023-02-19T02:45:19.945Z,11.88
2023-02-19T02:47:49.554Z,11.88
2023-02-19T02:50:24.776Z,11.89
2023-02-19T02:52:59.353Z,11.81
2023-02-19T02:55:33.535Z,11.88
2023-02-19T02:58:00.262Z,11.86
2023-02-19T03:00:29.342Z,11.79
2023-02-19T03:02:56.463Z,11.88
2023-02-19T03:05:26.983Z,11.89
2023-02-19T03:08:00.361Z,11.87
2023-02-19T03:10:36.013Z,11.88
2023-02-19T03:13:10.206Z,11.84
2023-02-19T03:15:44.872Z,11.86
2023-02-19T03:18:14.154Z,11.90
2023-02-19T03:20:46.416Z,11.66
2023-02-19T03:23:17.269Z,11.66
2023-02-19T03:25:44.535Z,11.64
2023-02-19T03:28:15.410Z,11.65
2023-02-19T03:30:49.460Z,11.67
2023-02-19T03:33:22.329Z,11.60
2023-02-19T03:35:56.834Z,11.66
2023-02-19T03:38:28.331Z,11.71
2023-02-19T03:41:07.017Z,11.57
2023-02-19T03:44:03.066Z,11.58
2023-02-19T03:47:00.015Z,11.66
2023-02-19T03:49:38.816Z,11.51
2023-02-19T03:52:37.815Z,11.51
2023-02-19T03:55:12.161Z,11.39
2023-02-19T03:57:43.211Z,11.48
2023-02-19T04:00:27.104Z,11.34
2023-02-19T04:03:23.620Z,11.53
2023-02-19T04:05:59.320Z,11.30
2023-02-19T04:08:27.531Z,10.87
2023-02-19T04:10:55.273Z,10.75
2023-02-19T04:13:52.628Z,10.97
2023-02-19T04:16:26.614Z,10.29
2023-02-19T04:18:59.709Z,10.28
2023-02-19T04:21:30.047Z,10.32
2023-02-19T04:24:02.736Z,10.55
2023-02-19T04:26:32.792Z,10.25
2023-02-19T04:28:59.769Z,10.12
2023-02-19T04:31:29.812Z,10.15
2023-02-19T04:33:56.405Z,10.38
2023-02-19T04:36:22.911Z,10.23
2023-02-19T04:38:49.434Z,10.12
2023-02-19T04:41:15.945Z,10.13
2023-02-19T04:43:42.400Z,9.43
2023-02-19T04:46:08.926Z,9.40
2023-02-19T04:48:35.421Z,9.84
2023-02-19T04:51:06.058Z,10.31
2023-02-19T04:53:32.690Z,10.33
2023-02-19T04:56:23.077Z,10.73
2023-02-19T04:58:49.812Z,10.69
2023-02-19T05:01:16.898Z,10.27
2023-02-19T05:03:44.052Z,10.37
2023-02-19T05:06:14.097Z,10.34
2023-02-19T05:08:41.212Z,10.82
2023-02-19T05:11:10.200Z,10.74
2023-02-19T05:13:38.048Z,11.12
2023-02-19T05:16:09.524Z,11.20
2023-02-19T05:18:36.141Z,11.25
2023-02-19T05:21:03.057Z,11.60
2023-02-19T05:23:29.593Z,11.74
2023-02-19T05:25:56.332Z,11.86
2023-02-19T05:28:24.252Z,11.93
2023-02-19T05:30:52.469Z,12.05
2023-02-19T05:33:20.828Z,12.19
2023-02-19T05:35:50.989Z,12.21
2023-02-19T05:38:18.806Z,12.26
2023-02-19T05:40:46.235Z,12.23
2023-02-19T05:43:13.836Z,12.27
2023-02-19T05:45:40.889Z,12.20
2023-02-19T05:48:08.389Z,12.19
2023-02-19T05:50:39.629Z,12.25
2023-02-19T05:53:06.320Z,12.01
2023-02-19T05:55:36.651Z,11.24
2023-02-19T05:58:03.871Z,11.14
2023-02-19T06:00:32.839Z,11.40
2023-02-19T06:02:59.986Z,11.36
2023-02-19T06:05:26.479Z,11.58
2023-02-19T06:07:53.134Z,11.70
2023-02-19T06:10:19.606Z,11.44
2023-02-19T06:12:46.086Z,11.56
2023-02-19T06:15:12.541Z,11.66
2023-02-19T06:17:39.032Z,11.52
2023-02-19T06:20:05.750Z,11.54
2023-02-19T06:22:32.243Z,11.45
2023-02-19T06:24:58.708Z,11.62
2023-02-19T06:29:51.982Z,11.64
2023-02-19T06:32:18.625Z,11.58
2023-02-19T06:34:45.172Z,11.28
2023-02-19T06:37:11.661Z,11.17
2023-02-19T06:39:38.136Z,10.95
2023-02-19T06:42:04.668Z,11.37
2023-02-19T06:44:31.163Z,11.40
2023-02-19T06:46:57.605Z,11.60
2023-02-19T06:49:24.128Z,11.70
2023-02-19T06:51:50.602Z,11.87
2023-02-19T06:54:17.112Z,11.81
2023-02-19T06:56:46.042Z,12.00
2023-02-19T06:59:16.010Z,12.17
2023-02-19T07:01:43.895Z,12.21
2023-02-19T07:04:11.794Z,12.25
2023-02-19T07:06:38.609Z,12.34
2023-02-19T07:09:07.020Z,12.38
2023-02-19T07:11:35.844Z,12.44
2023-02-19T07:14:04.324Z,12.47
2023-02-19T07:16:31.336Z,12.46
2023-02-19T07:18:59.648Z,12.42
2023-02-19T07:21:28.394Z,12.33
2023-02-19T07:23:54.921Z,12.26
2023-02-19T07:26:21.874Z,12.32
2023-02-19T07:28:51.009Z,12.32
2023-02-19T07:31:20.063Z,12.36
2023-02-19T07:33:47.406Z,11.97
2023-02-19T07:36:16.334Z,12.24
2023-02-19T07:38:42.842Z,12.43
2023-02-19T07:41:12.555Z,12.25
2023-02-19T07:43:39.587Z,12.36
2023-02-19T07:46:10.632Z,12.46
2023-02-19T07:48:39.124Z,12.44
2023-02-19T07:51:08.697Z,12.64
2023-02-19T07:53:38.322Z,12.29
2023-02-19T07:56:07.716Z,12.34
2023-02-19T07:58:34.471Z,12.25
2023-02-19T08:01:15.211Z,12.52
2023-02-19T08:03:43.072Z,12.81
2023-02-19T08:06:12.727Z,13.03
2023-02-19T08:08:39.990Z,12.66
2023-02-19T08:11:07.046Z,12.90
2023-02-19T08:13:33.544Z,13.02
2023-02-19T08:16:16.102Z,13.15
2023-02-19T08:18:46.788Z,13.25
2023-02-19T08:21:13.937Z,13.33
2023-02-19T08:23:40.497Z,13.55
2023-02-19T08:26:07.361Z,13.68
2023-02-19T08:28:33.847Z,13.75
2023-02-19T08:31:04.654Z,13.79
2023-02-19T08:33:31.569Z,13.92
2023-02-19T08:36:02.469Z,13.71
2023-02-19T08:38:28.937Z,13.69
2023-02-19T08:40:55.501Z,13.76
2023-02-19T08:43:22.260Z,13.83
2023-02-19T08:45:48.818Z,13.99
2023-02-19T08:48:15.314Z,14.14
2023-02-19T08:50:41.795Z,14.23
2023-02-19T08:53:08.256Z,14.28
2023-02-19T08:55:37.545Z,14.24
2023-02-19T08:58:04.188Z,14.19
2023-02-19T09:00:30.667Z,13.86
2023-02-19T09:02:58.356Z,13.50
2023-02-19T09:05:24.814Z,13.75
2023-02-19T09:07:51.338Z,13.91
2023-02-19T09:10:17.902Z,13.26
2023-02-19T09:12:44.628Z,13.05
2023-02-19T09:15:11.080Z,12.51
2023-02-19T09:17:37.537Z,12.44
2023-02-19T09:20:04.129Z,12.18
2023-02-19T09:22:30.648Z,12.30
2023-02-19T09:24:57.092Z,12.43
2023-02-19T09:27:23.557Z,12.15
2023-02-19T09:29:50.037Z,12.21
2023-02-19T09:32:18.801Z,12.67
2023-02-19T09:34:45.652Z,13.23
2023-02-19T09:37:12.138Z,13.30
2023-02-19T09:39:38.673Z,12.82
2023-02-19T09:42:28.251Z,12.44
2023-02-19T09:44:58.558Z,13.02
2023-02-19T09:47:31.509Z,12.29
2023-02-19T09:50:08.722Z,12.08
2023-02-19T09:52:42.117Z,12.76
2023-02-19T09:55:23.974Z,13.02
2023-02-19T09:57:52.356Z,13.09
2023-02-19T10:00:30.313Z,13.16
2023-02-19T10:03:10.086Z,13.44
2023-02-19T10:05:39.730Z,13.70
2023-02-19T10:08:15.268Z,13.46
2023-02-19T10:10:44.196Z,13.52
2023-02-19T10:13:17.140Z,13.75
2023-02-19T10:16:00.530Z,13.96
2023-02-19T10:18:32.218Z,14.16
2023-02-19T10:20:58.816Z,14.17
2023-02-19T10:23:26.354Z,14.39
2023-02-19T10:26:00.059Z,14.29
2023-02-19T10:28:37.691Z,14.49
2023-02-19T10:31:16.496Z,14.73
2023-02-19T10:33:49.689Z,14.76
2023-02-19T10:36:24.920Z,14.80
2023-02-19T10:38:51.982Z,14.89
2023-02-19T10:41:22.743Z,14.92
2023-02-19T10:44:02.286Z,14.82
2023-02-19T10:46:37.188Z,14.86
2023-02-19T10:49:13.848Z,14.78
2023-02-19T10:51:41.865Z,14.78
2023-02-19T10:54:29.563Z,14.64
2023-02-19T10:57:14.907Z,14.48
2023-02-19T10:59:58.159Z,14.69
2023-02-19T11:02:25.687Z,14.74
2023-02-19T11:05:11.724Z,14.54
2023-02-19T11:07:54.497Z,14.62
2023-02-19T11:10:33.221Z,14.68
2023-02-19T11:13:06.337Z,14.33
2023-02-19T11:15:37.337Z,14.66
2023-02-19T11:18:07.753Z,14.52
2023-02-19T11:20:34.526Z,14.37
2023-02-19T11:23:26.192Z,14.58
2023-02-19T11:25:56.112Z,14.64
2023-02-19T11:28:35.214Z,14.58
2023-02-19T11:31:22.868Z,14.92
2023-02-19T11:33:59.941Z,14.61
2023-02-19T11:36:30.604Z,14.75
2023-02-19T11:39:02.176Z,15.12
2023-02-19T11:41:40.807Z,14.99
2023-02-19T11:44:28.939Z,14.90
2023-02-19T11:46:58.143Z,14.80
2023-02-19T11:49:54.089Z,14.87
2023-02-19T11:52:45.713Z,14.72
2023-02-19T11:55:42.284Z,14.96
2023-02-19T11:58:33.012Z,14.93
2023-02-19T12:01:18.473Z,15.15
2023-02-19T12:04:15.961Z,15.26
2023-02-19T12:07:09.476Z,15.19
2023-02-19T12:09:59.884Z,15.30
2023-02-19T12:12:48.562Z,15.40
2023-02-19T12:15:15.019Z,15.39
2023-02-19T12:17:41.495Z,15.16
2023-02-19T12:20:33.821Z,15.26
2023-02-19T12:23:20.629Z,15.13
2023-02-19T12:26:11.279Z,15.15
2023-02-19T12:29:05.283Z,15.03
2023-02-19T12:32:00.138Z,15.19
2023-02-19T12:34:45.353Z,15.19
2023-02-19T12:37:35.934Z,15.37
2023-02-19T12:40:34.760Z,15.29
2023-02-19T12:43:10.344Z,15.45
2023-02-19T12:45:52.053Z,15.53
2023-02-19T12:48:40.445Z,15.87
2023-02-19T12:51:22.408Z,15.93
2023-02-19T12:54:00.715Z,16.07
2023-02-19T12:56:48.648Z,16.18
2023-02-19T12:59:33.177Z,16.10
2023-02-19T13:02:18.178Z,16.56
2023-02-19T13:05:03.497Z,16.53
2023-02-19T13:07:47.993Z,16.73
2023-02-19T13:10:26.913Z,16.97
2023-02-19T13:12:58.288Z,17.05
2023-02-19T13:15:34.160Z,17.18
2023-02-19T13:18:05.319Z,17.30
2023-02-19T13:20:38.803Z,17.49
2023-02-19T13:23:11.966Z,17.48
2023-02-19T13:26:00.473Z,17.44
2023-02-19T13:28:46.859Z,17.67
2023-02-19T13:31:50.709Z,17.97
2023-02-19T13:34:29.753Z,17.91
2023-02-19T13:36:57.191Z,17.98
2023-02-19T13:39:24.092Z,18.10
2023-02-19T13:41:54.583Z,18.17
2023-02-19T13:44:27.506Z,18.53
2023-02-19T13:46:54.105Z,18.75
2023-02-19T13:49:29.327Z,18.95
2023-02-19T13:52:01.483Z,19.27
2023-02-19T13:54:29.493Z,19.04
2023-02-19T13:57:20.106Z,19.13
2023-02-19T13:59:46.727Z,19.54
2023-02-19T14:02:22.653Z,19.45
2023-02-19T14:05:04.387Z,19.82
2023-02-19T14:07:37.617Z,19.64
2023-02-19T14:10:11.076Z,19.87
2023-02-19T14:12:38.043Z,20.20
2023-02-19T14:15:40.832Z,20.29
2023-02-19T14:18:52.584Z,20.54
2023-02-19T14:21:37.449Z,20.46
2023-02-19T14:24:10.506Z,20.78
2023-02-19T14:26:39.617Z,20.95
2023-02-19T14:29:09.240Z,21.54
2023-02-19T14:31:40.276Z,21.66
2023-02-19T14:34:18.884Z,22.06
2023-02-19T14:36:53.477Z,22.29
2023-02-19T14:39:26.603Z,22.11
2023-02-19T14:41:58.495Z,21.88
2023-02-19T14:44:32.280Z,21.70
2023-02-19T14:47:23.138Z,21.45
2023-02-19T14:50:02.693Z,21.33
2023-02-19T14:52:44.747Z,21.02
2023-02-19T14:55:33.988Z,20.94
2023-02-19T14:58:06.460Z,20.16
2023-02-19T15:00:42.943Z,20.87
2023-02-19T15:03:35.597Z,21.59
2023-02-19T15:06:07.054Z,21.86
2023-02-19T15:08:44.006Z,22.34
2023-02-19T15:11:18.829Z,22.82
2023-02-19T15:13:52.069Z,23.21
2023-02-19T15:16:25.801Z,23.62
2023-02-19T15:18:55.285Z,23.83
2023-02-19T15:21:28.040Z,24.08
2023-02-19T15:24:02.524Z,24.30
2023-02-19T15:26:38.249Z,24.42
2023-02-19T15:29:11.971Z,24.44
2023-02-19T15:31:49.290Z,24.66
2023-02-19T15:34:21.858Z,24.51
2023-02-19T15:36:54.514Z,24.67
2023-02-19T15:39:30.346Z,24.77
2023-02-19T15:42:00.586Z,24.72
2023-02-19T15:44:49.089Z,24.71
2023-02-19T15:47:23.447Z,24.96
2023-02-19T15:49:58.659Z,24.88
2023-02-19T15:52:35.956Z,24.45
2023-02-19T15:55:23.094Z,24.43
2023-02-19T15:58:04.275Z,24.21
2023-02-19T16:00:41.500Z,23.25
2023-02-19T16:03:18.550Z,21.99
2023-02-19T16:05:45.429Z,22.09
2023-02-19T16:08:11.833Z,22.07
2023-02-19T16:10:39.118Z,21.01
2023-02-19T16:13:06.472Z,20.61
2023-02-19T16:15:33.256Z,19.95
2023-02-19T16:18:00.856Z,19.53
2023-02-19T16:20:34.699Z,18.93
2023-02-19T16:23:14.141Z,18.38
2023-02-19T16:25:44.264Z,17.76
2023-02-19T16:28:22.656Z,17.45
2023-02-19T16:31:04.064Z,16.70
2023-02-19T16:33:30.465Z,16.61
2023-02-19T16:35:57.928Z,16.45
2023-02-19T16:38:25.829Z,16.11
2023-02-19T16:40:52.249Z,15.53
2023-02-19T16:43:28.463Z,15.44
2023-02-19T16:45:55.330Z,14.97
2023-02-19T16:48:23.257Z,14.85
2023-02-19T16:50:51.215Z,14.33
2023-02-19T16:53:23.410Z,14.36
2023-02-19T16:55:50.136Z,14.09
2023-02-19T16:58:16.609Z,13.88
2023-02-19T17:00:43.134Z,13.54
2023-02-19T17:03:14.293Z,13.22
2023-02-19T17:05:41.399Z,13.23
2023-02-19T17:08:34.201Z,13.10
2023-02-19T17:11:03.614Z,12.86
2023-02-19T17:13:30.664Z,12.75
2023-02-19T17:15:57.855Z,12.46
2023-02-19T17:18:24.756Z,12.38
2023-02-19T17:20:59.266Z,12.29
2023-02-19T17:23:25.774Z,12.00
2023-02-19T17:25:52.369Z,11.91
2023-02-19T17:28:18.886Z,11.83
2023-02-19T17:30:45.381Z,11.68
2023-02-19T17:33:11.899Z,11.88
2023-02-19T17:35:38.390Z,11.73
2023-02-19T17:38:04.894Z,11.86
2023-02-19T17:40:33.686Z,11.71
2023-02-19T17:43:00.864Z,11.71
2023-02-19T17:45:27.369Z,11.58
2023-02-19T17:47:54.010Z,11.54
2023-02-19T17:50:24.141Z,11.58
2023-02-19T17:52:50.661Z,11.66
2023-02-19T17:55:18.520Z,11.66
2023-02-19T17:57:49.374Z,11.60
2023-02-19T18:00:19.490Z,11.56
2023-02-19T18:02:46.083Z,11.49
2023-02-19T18:05:13.053Z,11.78
2023-02-19T18:07:39.848Z,11.74
2023-02-19T18:10:08.041Z,11.53
2023-02-19T18:12:34.610Z,11.36
2023-02-19T18:15:01.150Z,11.64
2023-02-19T18:17:27.645Z,11.57
2023-02-19T18:19:54.454Z,11.41
2023-02-19T18:22:21.088Z,11.31
2023-02-19T18:24:50.316Z,11.31
2023-02-19T18:27:18.045Z,11.28
2023-02-19T18:29:44.873Z,11.40
2023-02-19T18:32:11.470Z,11.30
2023-02-19T18:34:38.021Z,11.31
2023-02-19T18:37:04.486Z,11.39
2023-02-19T18:39:30.944Z,11.39
2023-02-19T18:41:57.451Z,11.60
2023-02-19T18:44:25.092Z,11.68
2023-02-19T18:46:52.443Z,11.77
2023-02-19T18:49:27.129Z,11.97
2023-02-19T18:51:53.618Z,11.86
2023-02-19T18:54:22.861Z,11.82
2023-02-19T18:56:49.520Z,11.51
2023-02-19T18:59:16.178Z,11.47
2023-02-19T19:01:43.796Z,11.37
2023-02-19T19:04:10.499Z,11.49
2023-02-19T19:06:37.127Z,11.49
2023-02-19T19:09:04.924Z,11.55
2023-02-19T19:11:31.804Z,11.30
2023-02-19T19:13:58.437Z,11.23
2023-02-19T19:16:27.053Z,11.33
2023-02-19T19:18:54.440Z,11.44
2023-02-19T19:21:22.077Z,11.29
2023-02-19T19:23:48.631Z,11.39
2023-02-19T19:26:15.780Z,11.29
2023-02-19T19:28:42.621Z,11.63
2023-02-19T19:31:09.331Z,11.70
2023-02-19T19:33:35.914Z,11.69
2023-02-19T19:36:02.393Z,11.81
2023-02-19T19:38:30.012Z,11.71
2023-02-19T19:40:56.494Z,11.76
2023-02-19T19:43:29.685Z,12.13
2023-02-19T19:45:56.323Z,11.95
2023-02-19T19:48:26.728Z,12.09
2023-02-19T19:50:53.864Z,12.39
2023-02-19T19:53:20.363Z,12.54
2023-02-19T19:55:46.943Z,12.20
2023-02-19T19:58:13.408Z,12.39
2023-02-19T20:00:39.910Z,12.42
2023-02-19T20:03:06.389Z,12.65
2023-02-19T20:05:32.879Z,12.58
2023-02-19T20:07:59.406Z,12.67
2023-02-19T20:10:25.886Z,12.81
2023-02-19T20:12:52.412Z,12.64
2023-02-19T20:15:20.886Z,12.94
2023-02-19T20:17:47.561Z,13.07
2023-02-19T20:20:18.718Z,13.03
2023-02-19T20:22:45.211Z,13.19
2023-02-19T20:25:11.735Z,13.19
2023-02-19T20:27:38.263Z,12.85
2023-02-19T20:30:05.801Z,13.05
2023-02-19T20:32:32.301Z,13.10
2023-02-19T20:34:58.880Z,12.86
2023-02-19T20:37:25.356Z,12.93
2023-02-19T20:39:51.917Z,12.91
2023-02-19T20:42:18.576Z,12.87
2023-02-19T20:44:45.118Z,12.69
2023-02-19T20:47:11.665Z,12.55
2023-02-19T20:49:38.219Z,12.60
2023-02-19T20:52:06.849Z,12.12
2023-02-19T20:54:35.275Z,11.98
2023-02-19T20:57:04.868Z,11.96
2023-02-19T20:59:33.527Z,11.65
2023-02-19T21:02:01.001Z,11.58
2023-02-19T21:04:28.003Z,11.43
2023-02-19T21:06:54.603Z,11.37
2023-02-19T21:09:22.733Z,11.19
2023-02-19T21:11:49.616Z,10.92
2023-02-19T21:14:17.124Z,11.42
2023-02-19T21:16:43.601Z,11.32
2023-02-19T21:19:10.070Z,11.64
2023-02-19T21:21:36.554Z,11.73
2023-02-19T21:24:03.104Z,11.85
2023-02-19T21:26:37.824Z,12.16
2023-02-19T21:29:05.932Z,12.06
2023-02-19T21:31:41.792Z,11.70
2023-02-19T21:34:10.091Z,11.75
2023-02-19T21:36:37.342Z,11.69
2023-02-19T21:39:06.289Z,11.80
2023-02-19T21:41:32.894Z,11.76
2023-02-19T21:43:59.649Z,11.54
2023-02-19T21:46:26.631Z,11.66
2023-02-19T21:48:55.776Z,11.38
2023-02-19T21:51:32.184Z,11.37
2023-02-19T21:53:59.145Z,11.49
2023-02-19T21:56:28.525Z,11.56
2023-02-19T21:58:55.041Z,11.40
2023-02-19T22:01:28.695Z,11.51
2023-02-19T22:03:55.325Z,11.51
2023-02-19T22:06:29.197Z,11.12
2023-02-19T22:08:56.421Z,11.02
2023-02-19T22:11:23.908Z,11.16
2023-02-19T22:13:50.696Z,11.53
2023-02-19T22:16:18.246Z,11.55
2023-02-19T22:18:50.091Z,11.66
2023-02-19T22:21:17.697Z,11.81
2023-02-19T22:23:49.031Z,11.35
2023-02-19T22:26:19.793Z,11.21
2023-02-19T22:28:46.299Z,11.63
2023-02-19T22:31:13.131Z,11.78
2023-02-19T22:33:39.731Z,11.65
2023-02-19T22:36:14.392Z,12.01
2023-02-19T22:38:40.871Z,12.14
2023-02-19T22:41:07.376Z,12.19
2023-02-19T22:43:33.849Z,12.03
2023-02-19T22:46:00.612Z,12.32
2023-02-19T22:48:30.086Z,12.41
2023-02-19T22:50:57.901Z,12.52
2023-02-19T22:53:24.968Z,12.63
2023-02-19T22:55:51.550Z,12.64
2023-02-19T22:58:18.191Z,12.70
2023-02-19T23:00:44.708Z,12.58
2023-02-19T23:03:11.175Z,12.39
2023-02-19T23:05:37.716Z,12.27
2023-02-19T23:08:04.481Z,11.88
2023-02-19T23:10:30.973Z,11.65
2023-02-19T23:12:57.597Z,12.03
2023-02-19T23:15:24.168Z,12.12
2023-02-19T23:17:50.858Z,12.28
2023-02-19T23:20:17.442Z,12.24
2023-02-19T23:22:43.910Z,12.03
2023-02-19T23:25:10.427Z,11.97
2023-02-19T23:27:39.826Z,12.00
2023-02-19T23:30:06.874Z,12.21
2023-02-19T23:32:33.397Z,12.14
2023-02-19T23:34:59.917Z,12.42
2023-02-19T23:37:26.420Z,12.33
2023-02-19T23:39:52.949Z,12.50
2023-02-19T23:42:19.649Z,12.59
2023-02-19T23:44:47.018Z,12.67
2023-02-19T23:47:14.432Z,12.61
2023-02-19T23:49:41.622Z,12.52
2023-02-19T23:52:08.212Z,12.51
2023-02-19T23:54:34.877Z,12.65
2023-02-19T23:57:01.379Z,12.62
2023-02-19T23:59:27.922Z,12.69
